Adaville, Iowa
Current Conditions -  °F | °C
As of 9:15 PM on Saturday 22 Nov 2014 (Local Time) from KLRJ Reporting Station
Overcast Overcast  
Wind Chill: 10°   Ceiling: 800
Heat Index: 10°   Visibility: 9mi
Dew Point:   Wind: 16mph
Humidity: 94%   Direction: 190°S
Pressure: 29.51"   Gusts: 25mph
Location:  42.7082°N, 96.485°W
Report Text: KLRJ 230315Z AUTO 19014G22KT 9SM OVC008 10/09 A2951 RMK AO2
Loading
Personal Weather Stations






























Interactive Weather Map New forecast layout! Learn more

10-Day Weather Forecast

Advertisements
Track Severe Weather on mobile